Time;durP1;ratioP1;P1;durP2;ratioP2;P2;SDS_P1;SDS_P2;PMS_P1;PMS_P2;Temp;Humidity;BMP_temperature;BMP_pressure;BME280_temperature;BME280_humidity;BME280_pressure;Samples;Min_cycle;Max_cycle;Signal;HPM_P1;HPM_P2
2022/01/19 00:01:09;;;;;;;13.63;6.55;;;;;;;;;;5056301;28;20021;-68
2022/01/19 00:03:36;;;;;;;13.82;6.57;;;;;;;;;;5056679;28;20033;-69
2022/01/19 00:06:02;;;;;;;13.05;5.05;;;;;;;;;;5056587;28;20028;-68
2022/01/19 00:08:29;;;;;;;13.15;5.78;;;;;;;;;;5056199;28;20106;-68
2022/01/19 00:10:55;;;;;;;10.85;4.88;;;;;;;;;;5056500;28;20075;-69
2022/01/19 00:13:21;;;;;;;14.90;5.10;;;;;;;;;;5055886;28;20087;-67
2022/01/19 00:15:48;;;;;;;12.55;5.75;;;;;;;;;;5055051;28;20151;-70
2022/01/19 00:18:15;;;;;;;12.80;5.57;;;;;;;;;;5055110;28;20017;-68
2022/01/19 00:20:43;;;;;;;12.57;4.70;;;;;;;;;;5055875;28;20056;-68
2022/01/19 00:23:15;;;;;;;13.25;5.80;;;;;;;;;;5056491;28;20101;-68
2022/01/19 00:25:41;;;;;;;14.20;5.38;;;;;;;;;;5056422;28;20021;-68
2022/01/19 00:28:07;;;;;;;17.75;5.70;;;;;;;;;;5055864;28;20385;-68
2022/01/19 00:30:33;;;;;;;11.27;4.38;;;;;;;;;;5056084;28;20103;-68
2022/01/19 00:33:00;;;;;;;10.52;3.85;;;;;;;;;;5056347;28;20403;-68
2022/01/19 00:35:26;;;;;;;13.18;5.90;;;;;;;;;;5055716;28;20033;-68
2022/01/19 00:37:52;;;;;;;12.23;5.10;;;;;;;;;;5055994;28;20021;-68
2022/01/19 00:40:19;;;;;;;10.95;4.85;;;;;;;;;;5055914;28;20029;-68
2022/01/19 00:42:45;;;;;;;12.23;5.00;;;;;;;;;;5055643;28;20385;-68
2022/01/19 00:45:13;;;;;;;15.10;5.03;;;;;;;;;;5055882;28;20029;-68
2022/01/19 00:47:42;;;;;;;11.48;5.22;;;;;;;;;;5055341;28;20025;-68
2022/01/19 00:50:10;;;;;;;10.80;4.88;;;;;;;;;;5055422;28;20028;-68
2022/01/19 00:52:37;;;;;;;13.88;4.68;;;;;;;;;;5056035;28;20021;-69
2022/01/19 00:55:08;;;;;;;12.18;4.55;;;;;;;;;;5055600;28;20033;-68
2022/01/19 00:57:34;;;;;;;10.98;4.97;;;;;;;;;;5055292;28;20021;-68
2022/01/19 01:00:01;;;;;;;12.20;5.38;;;;;;;;;;5054271;28;20034;-69
2022/01/19 01:02:27;;;;;;;13.48;5.22;;;;;;;;;;5055778;28;20088;-69
2022/01/19 01:04:53;;;;;;;14.25;5.50;;;;;;;;;;5055094;28;20051;-70
2022/01/19 01:07:19;;;;;;;13.07;6.22;;;;;;;;;;5055478;28;20406;-69
2022/01/19 01:09:46;;;;;;;14.93;7.07;;;;;;;;;;5055004;28;20104;-68
2022/01/19 01:12:19;;;;;;;20.75;7.78;;;;;;;;;;5055351;28;20025;-68
2022/01/19 01:20:15;;;;;;;21.48;6.97;;;;;;;;;;5055175;28;20039;-68
2022/01/19 01:22:41;;;;;;;26.63;8.60;;;;;;;;;;5055438;28;20021;-68
2022/01/19 01:25:08;;;;;;;20.10;8.85;;;;;;;;;;5054648;28;20032;-68
2022/01/19 01:27:35;;;;;;;20.08;9.00;;;;;;;;;;5053748;28;20021;-68
2022/01/19 01:30:01;;;;;;;22.92;7.68;;;;;;;;;;5054918;28;20060;-68
2022/01/19 01:32:30;;;;;;;18.50;8.02;;;;;;;;;;5054586;28;20071;-68
2022/01/19 01:34:56;;;;;;;19.15;8.02;;;;;;;;;;5055124;28;20064;-69
2022/01/19 01:37:22;;;;;;;16.85;7.32;;;;;;;;;;5054827;28;20025;-68
2022/01/19 01:39:48;;;;;;;20.52;8.20;;;;;;;;;;5054494;28;20029;-68
2022/01/19 01:42:16;;;;;;;12.77;4.78;;;;;;;;;;5055016;28;20056;-68
2022/01/19 01:44:46;;;;;;;10.00;4.70;;;;;;;;;;5054481;28;20025;-69
2022/01/19 01:47:14;;;;;;;11.10;4.47;;;;;;;;;;5054919;28;20461;-69
2022/01/19 01:54:51;;;;;;;11.13;4.30;;;;;;;;;;5054621;28;20504;-68
2022/01/19 01:57:18;;;;;;;10.93;4.25;;;;;;;;;;5053070;28;20044;-68
2022/01/19 01:59:44;;;;;;;11.40;4.22;;;;;;;;;;5053257;28;20029;-68
2022/01/19 02:02:13;;;;;;;7.65;4.00;;;;;;;;;;5054420;28;20017;-69
2022/01/19 02:04:41;;;;;;;11.20;4.90;;;;;;;;;;5054593;28;20040;-68
2022/01/19 02:07:32;;;;;;;9.20;3.90;;;;;;;;;;5053931;28;20032;-70
2022/01/19 02:09:59;;;;;;;13.70;4.45;;;;;;;;;;5054193;28;20039;-68
2022/01/19 02:23:48;;;;;;;11.85;5.07;;;;;;;;;;5054403;28;20068;-70
2022/01/19 02:26:28;;;;;;;16.40;6.25;;;;;;;;;;5054388;28;20071;-70
2022/01/19 02:29:16;;;;;;;14.88;4.97;;;;;;;;;;5053721;28;20021;-70
2022/01/19 02:36:28;;;;;;;16.80;5.28;;;;;;;;;;5054260;28;20056;-69
2022/01/19 02:42:32;;;;;;;19.27;6.30;;;;;;;;;;5053565;28;20040;-68
2022/01/19 02:49:52;;;;;;;13.90;5.07;;;;;;;;;;5053186;28;20112;-69
2022/01/19 02:52:19;;;;;;;15.60;5.70;;;;;;;;;;5053608;28;20469;-68
2022/01/19 02:54:46;;;;;;;11.65;4.85;;;;;;;;;;5052168;28;20545;-69
2022/01/19 02:57:13;;;;;;;18.55;5.95;;;;;;;;;;5053130;28;20028;-68
2022/01/19 03:10:24;;;;;;;15.32;4.90;;;;;;;;;;5052770;28;20526;-68
2022/01/19 03:12:50;;;;;;;13.93;5.15;;;;;;;;;;5053314;28;20025;-69
2022/01/19 03:15:16;;;;;;;11.13;5.05;;;;;;;;;;5052969;28;20075;-68
2022/01/19 03:17:43;;;;;;;13.18;5.80;;;;;;;;;;5052792;28;20424;-68
2022/01/19 03:20:10;;;;;;;13.68;5.90;;;;;;;;;;5051952;28;20086;-68
2022/01/19 03:22:43;;;;;;;11.32;4.80;;;;;;;;;;5053208;28;20017;-68
2022/01/19 03:25:12;;;;;;;21.55;7.65;;;;;;;;;;5052847;28;20017;-69
2022/01/19 03:27:40;;;;;;;14.50;6.03;;;;;;;;;;5053336;28;20021;-68
2022/01/19 03:30:07;;;;;;;15.23;5.35;;;;;;;;;;5053161;28;20473;-68
2022/01/19 03:32:33;;;;;;;14.00;6.20;;;;;;;;;;5051429;28;20049;-68
2022/01/19 03:35:00;;;;;;;17.45;6.13;;;;;;;;;;5053313;28;20135;-69
2022/01/19 03:37:29;;;;;;;16.23;7.47;;;;;;;;;;5052641;28;20071;-68
2022/01/19 03:39:55;;;;;;;14.80;7.03;;;;;;;;;;5053062;28;20029;-68
2022/01/19 03:42:21;;;;;;;15.70;7.10;;;;;;;;;;5053054;28;20059;-68
2022/01/19 03:44:48;;;;;;;13.07;5.38;;;;;;;;;;5052808;28;20434;-68
2022/01/19 03:47:14;;;;;;;10.63;5.53;;;;;;;;;;5052974;28;20075;-68
2022/01/19 03:49:40;;;;;;;10.80;4.38;;;;;;;;;;5052945;28;20029;-69
2022/01/19 03:52:07;;;;;;;9.95;4.43;;;;;;;;;;5052493;28;20021;-68
2022/01/19 03:54:35;;;;;;;10.05;5.30;;;;;;;;;;5052816;28;20386;-69
2022/01/19 03:57:02;;;;;;;12.20;5.57;;;;;;;;;;5052878;28;20056;-69
2022/01/19 03:59:28;;;;;;;15.32;4.97;;;;;;;;;;5052550;28;20021;-68
2022/01/19 04:01:56;;;;;;;14.52;5.72;;;;;;;;;;5052860;28;20025;-69
2022/01/19 04:09:30;;;;;;;17.10;7.10;;;;;;;;;;5052682;28;20039;-68
2022/01/19 04:11:57;;;;;;;28.35;9.73;;;;;;;;;;5052721;28;20036;-69
2022/01/19 04:14:24;;;;;;;19.65;8.70;;;;;;;;;;5052098;28;20501;-68
2022/01/19 04:16:52;;;;;;;15.98;6.45;;;;;;;;;;5052754;28;20021;-68
2022/01/19 04:19:24;;;;;;;18.50;8.48;;;;;;;;;;5052591;28;20029;-68
2022/01/19 04:21:51;;;;;;;21.50;7.95;;;;;;;;;;5053654;28;20017;-68
2022/01/19 04:24:21;;;;;;;16.23;7.05;;;;;;;;;;5056445;28;20079;-68
2022/01/19 04:26:58;;;;;;;13.77;6.60;;;;;;;;;;5056572;28;20025;-68
2022/01/19 04:29:25;;;;;;;16.75;7.45;;;;;;;;;;5056764;28;20527;-70
2022/01/19 04:31:51;;;;;;;20.02;5.93;;;;;;;;;;5056131;28;20147;-69
2022/01/19 04:34:19;;;;;;;15.77;7.07;;;;;;;;;;5055690;28;20028;-68
2022/01/19 04:44:53;;;;;;;17.88;8.40;;;;;;;;;;5055987;28;20166;-68
2022/01/19 05:03:44;;;;;;;26.83;10.88;;;;;;;;;;5055005;28;20389;-69
2022/01/19 05:06:15;;;;;;;26.45;9.43;;;;;;;;;;5055976;28;20025;-69
2022/01/19 05:14:10;;;;;;;18.17;8.15;;;;;;;;;;5055300;28;20098;-68
2022/01/19 05:16:36;;;;;;;22.90;8.82;;;;;;;;;;5054898;28;20025;-69
2022/01/19 05:19:03;;;;;;;23.85;9.20;;;;;;;;;;5055329;28;20021;-69
2022/01/19 05:21:29;;;;;;;45.60;26.05;;;;;;;;;;5055316;28;20024;-69
2022/01/19 05:23:55;;;;;;;23.38;12.02;;;;;;;;;;5054761;28;20025;-70
2022/01/19 05:26:21;;;;;;;25.73;11.80;;;;;;;;;;5055294;28;20025;-68
2022/01/19 05:28:47;;;;;;;26.90;11.98;;;;;;;;;;5055049;28;20052;-68
2022/01/19 05:31:14;;;;;;;27.17;12.27;;;;;;;;;;5054629;28;20079;-68
2022/01/19 05:33:40;;;;;;;22.90;11.65;;;;;;;;;;5054901;28;20070;-69
2022/01/19 05:36:09;;;;;;;19.77;9.48;;;;;;;;;;5054879;28;20033;-68
2022/01/19 05:38:35;;;;;;;21.17;8.65;;;;;;;;;;5054516;28;20025;-68
2022/01/19 05:41:01;;;;;;;19.30;8.50;;;;;;;;;;5054756;28;20023;-68
2022/01/19 05:43:28;;;;;;;16.77;7.70;;;;;;;;;;5054758;28;20470;-68
2022/01/19 05:45:54;;;;;;;14.18;5.88;;;;;;;;;;5054334;28;20100;-69
2022/01/19 05:48:20;;;;;;;12.70;5.45;;;;;;;;;;5054689;28;20029;-68
2022/01/19 05:50:47;;;;;;;12.55;4.75;;;;;;;;;;5055067;28;20152;-70
2022/01/19 05:53:13;;;;;;;10.70;4.07;;;;;;;;;;5054368;28;20431;-72
2022/01/19 05:55:39;;;;;;;16.10;6.72;;;;;;;;;;5054526;28;20033;-68
2022/01/19 05:58:05;;;;;;;13.60;6.85;;;;;;;;;;5054163;28;20021;-68
2022/01/19 06:00:32;;;;;;;216.00;87.93;;;;;;;;;;5054360;28;20029;-68
2022/01/19 06:02:58;;;;;;;27.13;13.13;;;;;;;;;;5054579;28;20021;-68
2022/01/19 06:05:24;;;;;;;33.97;15.80;;;;;;;;;;5053880;28;20025;-68
2022/01/19 06:07:59;;;;;;;67.70;30.77;;;;;;;;;;5054243;28;20025;-68
2022/01/19 06:10:44;;;;;;;41.15;23.05;;;;;;;;;;5054394;28;20049;-68
2022/01/19 06:13:11;;;;;;;47.92;22.42;;;;;;;;;;5053923;28;20516;-67
2022/01/19 06:15:37;;;;;;;20.63;9.48;;;;;;;;;;5053869;28;20444;-68
2022/01/19 06:18:03;;;;;;;15.18;7.32;;;;;;;;;;5054319;28;20021;-68
2022/01/19 06:20:29;;;;;;;11.35;4.55;;;;;;;;;;5052360;28;20029;-68
2022/01/19 06:22:56;;;;;;;13.27;7.20;;;;;;;;;;5053998;28;20028;-68
2022/01/19 06:25:22;;;;;;;60.10;27.17;;;;;;;;;;5054069;28;20029;-68
2022/01/19 06:27:49;;;;;;;45.08;19.00;;;;;;;;;;5053447;28;20025;-68
2022/01/19 06:30:15;;;;;;;30.52;13.20;;;;;;;;;;5053873;28;20082;-70
2022/01/19 06:32:41;;;;;;;31.95;16.25;;;;;;;;;;5052546;28;20492;-68
2022/01/19 06:35:10;;;;;;;24.63;10.98;;;;;;;;;;5053365;28;20025;-68
2022/01/19 06:37:37;;;;;;;61.97;26.05;;;;;;;;;;5052522;28;20388;-68
2022/01/19 06:40:04;;;;;;;40.22;20.20;;;;;;;;;;5053577;28;20481;-69
2022/01/19 06:42:31;;;;;;;36.17;20.15;;;;;;;;;;5052398;28;20037;-69
2022/01/19 06:44:57;;;;;;;37.88;20.77;;;;;;;;;;5051907;28;20028;-69
2022/01/19 06:47:23;;;;;;;37.60;19.45;;;;;;;;;;5053209;28;20025;-68
2022/01/19 06:49:49;;;;;;;46.53;25.98;;;;;;;;;;5053707;28;20100;-70
2022/01/19 06:52:16;;;;;;;38.53;18.50;;;;;;;;;;5052321;28;20103;-70
2022/01/19 06:54:42;;;;;;;28.98;13.48;;;;;;;;;;5053263;28;20481;-70
2022/01/19 06:57:08;;;;;;;22.70;9.93;;;;;;;;;;5053519;28;20075;-69
2022/01/19 06:59:34;;;;;;;35.13;15.60;;;;;;;;;;5053596;28;20562;-69
2022/01/19 07:02:03;;;;;;;16.52;8.10;;;;;;;;;;5052986;28;20025;-69
2022/01/19 07:04:29;;;;;;;26.55;11.07;;;;;;;;;;5053270;28;20423;-68
2022/01/19 07:06:58;;;;;;;16.85;7.63;;;;;;;;;;5051948;28;20028;-69
2022/01/19 07:09:24;;;;;;;25.73;13.73;;;;;;;;;;5052936;28;20500;-69
2022/01/19 07:11:50;;;;;;;20.40;9.63;;;;;;;;;;5053621;28;20032;-68
2022/01/19 07:14:17;;;;;;;21.00;8.23;;;;;;;;;;5052986;28;20045;-68
2022/01/19 07:16:44;;;;;;;29.40;9.93;;;;;;;;;;5052806;28;20021;-68
2022/01/19 07:19:13;;;;;;;35.33;13.70;;;;;;;;;;5053295;28;20096;-68
2022/01/19 07:21:39;;;;;;;26.30;10.10;;;;;;;;;;5053319;28;20086;-69
2022/01/19 07:24:05;;;;;;;20.08;8.65;;;;;;;;;;5051412;28;20036;-68
2022/01/19 07:26:31;;;;;;;18.15;7.18;;;;;;;;;;5053478;28;20021;-68
2022/01/19 07:28:58;;;;;;;22.45;9.30;;;;;;;;;;5051801;28;20049;-69
2022/01/19 07:31:24;;;;;;;17.92;8.23;;;;;;;;;;5052783;28;20473;-68
2022/01/19 07:33:50;;;;;;;27.05;10.35;;;;;;;;;;5053132;28;20021;-69
2022/01/19 07:36:16;;;;;;;16.75;7.47;;;;;;;;;;5053260;28;20029;-69
2022/01/19 07:38:43;;;;;;;17.13;6.40;;;;;;;;;;5052731;28;20025;-70
2022/01/19 07:41:12;;;;;;;16.17;7.57;;;;;;;;;;5053146;28;20416;-69
2022/01/19 07:43:38;;;;;;;15.88;6.63;;;;;;;;;;5052803;28;20039;-69
2022/01/19 07:46:05;;;;;;;12.73;6.22;;;;;;;;;;5053170;28;20053;-68
2022/01/19 07:48:31;;;;;;;16.02;6.97;;;;;;;;;;5052928;28;20090;-69
2022/01/19 07:50:57;;;;;;;25.27;10.00;;;;;;;;;;5052764;28;20051;-69
2022/01/19 07:53:23;;;;;;;36.58;14.88;;;;;;;;;;5052899;28;20076;-69
2022/01/19 07:55:50;;;;;;;29.30;14.43;;;;;;;;;;5052853;28;20068;-69
2022/01/19 07:58:19;;;;;;;22.00;9.95;;;;;;;;;;5055933;28;20028;-69
2022/01/19 08:00:45;;;;;;;23.42;10.50;;;;;;;;;;5056710;28;20025;-69
2022/01/19 08:03:11;;;;;;;24.90;9.77;;;;;;;;;;5056644;28;20021;-69
2022/01/19 08:05:38;;;;;;;25.67;9.40;;;;;;;;;;5056311;28;20104;-70
2022/01/19 08:08:04;;;;;;;18.55;8.75;;;;;;;;;;5054906;28;20104;-68
2022/01/19 08:10:31;;;;;;;23.75;8.82;;;;;;;;;;5056385;28;20028;-68
2022/01/19 08:13:01;;;;;;;23.80;10.05;;;;;;;;;;5056080;28;20029;-68
2022/01/19 08:15:27;;;;;;;21.67;12.48;;;;;;;;;;5056242;28;20052;-68
2022/01/19 08:17:54;;;;;;;30.60;17.30;;;;;;;;;;5056514;28;20048;-69
2022/01/19 08:20:20;;;;;;;28.67;13.75;;;;;;;;;;5055849;28;20039;-69
2022/01/19 08:22:46;;;;;;;16.08;8.27;;;;;;;;;;5056207;28;20028;-69
2022/01/19 08:25:13;;;;;;;25.33;12.23;;;;;;;;;;5056170;28;20029;-68
2022/01/19 08:27:39;;;;;;;23.63;11.90;;;;;;;;;;5055943;28;20029;-71
2022/01/19 08:30:14;;;;;;;21.02;10.45;;;;;;;;;;5056324;28;20103;-68
2022/01/19 08:32:41;;;;;;;21.60;11.25;;;;;;;;;;5055961;28;20029;-68
2022/01/19 08:35:08;;;;;;;23.05;11.18;;;;;;;;;;5055798;28;20033;-68
2022/01/19 08:37:34;;;;;;;22.00;10.40;;;;;;;;;;5055866;28;20045;-68
2022/01/19 08:40:00;;;;;;;27.65;13.93;;;;;;;;;;5055457;28;20057;-68
2022/01/19 08:42:28;;;;;;;37.10;17.55;;;;;;;;;;5055460;28;20025;-68
2022/01/19 08:44:57;;;;;;;24.10;12.40;;;;;;;;;;5055771;28;20019;-68
2022/01/19 08:47:23;;;;;;;23.80;11.30;;;;;;;;;;5055010;28;20025;-69
2022/01/19 08:49:52;;;;;;;22.27;9.75;;;;;;;;;;5055639;28;20435;-68
2022/01/19 08:52:19;;;;;;;20.95;9.50;;;;;;;;;;5055287;28;20028;-68
2022/01/19 08:54:47;;;;;;;14.32;8.20;;;;;;;;;;5054937;28;20048;-69
2022/01/19 08:57:16;;;;;;;19.05;8.52;;;;;;;;;;5055551;28;20480;-68
2022/01/19 08:59:43;;;;;;;17.98;8.57;;;;;;;;;;5055081;28;20032;-68
2022/01/19 09:02:10;;;;;;;27.15;11.82;;;;;;;;;;5054888;28;20025;-68
2022/01/19 09:04:36;;;;;;;18.25;9.48;;;;;;;;;;5055229;28;20397;-68
2022/01/19 09:07:02;;;;;;;18.70;8.85;;;;;;;;;;5055134;28;20420;-68
2022/01/19 09:09:28;;;;;;;20.30;8.80;;;;;;;;;;5054697;28;20473;-68
2022/01/19 09:11:54;;;;;;;25.60;11.63;;;;;;;;;;5055488;28;20025;-69
2022/01/19 09:14:21;;;;;;;24.23;11.00;;;;;;;;;;5054761;28;20052;-69
2022/01/19 09:16:50;;;;;;;14.80;8.52;;;;;;;;;;5054665;28;20036;-69
2022/01/19 09:19:17;;;;;;;18.25;7.95;;;;;;;;;;5054746;28;20094;-69
2022/01/19 09:21:43;;;;;;;14.98;6.95;;;;;;;;;;5055296;28;20028;-69
2022/01/19 09:24:10;;;;;;;18.73;7.18;;;;;;;;;;5053220;28;20048;-70
2022/01/19 09:26:37;;;;;;;16.45;9.65;;;;;;;;;;5054908;28;20025;-69
2022/01/19 09:29:04;;;;;;;21.42;8.93;;;;;;;;;;5054432;28;20029;-69
2022/01/19 09:31:33;;;;;;;15.77;6.93;;;;;;;;;;5054822;28;20436;-69
2022/01/19 09:34:08;;;;;;;14.85;6.28;;;;;;;;;;5054802;28;20028;-68
2022/01/19 09:36:36;;;;;;;13.65;7.57;;;;;;;;;;5054611;28;20087;-68
2022/01/19 09:39:05;;;;;;;15.60;6.90;;;;;;;;;;5054708;28;20021;-69
2022/01/19 09:41:32;;;;;;;16.65;7.30;;;;;;;;;;5054731;28;20092;-69
2022/01/19 09:43:58;;;;;;;10.70;5.97;;;;;;;;;;5054166;28;20146;-70
2022/01/19 09:46:26;;;;;;;16.95;7.25;;;;;;;;;;5054583;28;20028;-70
2022/01/19 09:48:52;;;;;;;15.05;7.55;;;;;;;;;;5054131;28;20028;-69
2022/01/19 09:51:19;;;;;;;17.10;7.93;;;;;;;;;;5053613;28;20025;-69
2022/01/19 09:53:46;;;;;;;18.00;6.63;;;;;;;;;;5054113;28;20040;-69
2022/01/19 09:56:13;;;;;;;23.15;12.50;;;;;;;;;;5054089;28;20044;-69
2022/01/19 09:58:39;;;;;;;16.58;9.18;;;;;;;;;;5053804;28;20017;-69
2022/01/19 10:01:05;;;;;;;16.40;7.75;;;;;;;;;;5054239;28;20025;-68
2022/01/19 10:03:32;;;;;;;14.40;8.27;;;;;;;;;;5054192;28;20025;-69
2022/01/19 10:06:02;;;;;;;13.77;6.25;;;;;;;;;;5053737;28;20036;-69
2022/01/19 10:08:29;;;;;;;18.65;8.43;;;;;;;;;;5052885;28;20489;-69
2022/01/19 10:11:06;;;;;;;12.90;6.28;;;;;;;;;;5054362;28;20025;-69
2022/01/19 10:19:17;;;;;;;13.60;5.45;;;;;;;;;;5053305;28;20052;-68
2022/01/19 10:21:56;;;;;;;12.98;6.25;;;;;;;;;;5052504;28;20060;-69
2022/01/19 10:24:41;;;;;;;13.77;6.40;;;;;;;;;;5054026;28;20037;-69
2022/01/19 10:27:40;;;;;;;11.27;6.18;;;;;;;;;;5053450;28;20029;-69
2022/01/19 10:30:06;;;;;;;12.23;5.07;;;;;;;;;;5049792;28;20033;-69
2022/01/19 10:32:35;;;;;;;14.98;6.07;;;;;;;;;;5053451;28;20067;-69
2022/01/19 10:35:15;;;;;;;12.90;6.78;;;;;;;;;;5053751;28;20033;-69
2022/01/19 10:37:44;;;;;;;13.43;6.10;;;;;;;;;;5053936;28;20025;-69
2022/01/19 10:40:14;;;;;;;19.15;8.73;;;;;;;;;;5052317;28;20029;-69
2022/01/19 10:42:41;;;;;;;15.52;6.93;;;;;;;;;;5053565;28;20025;-69
2022/01/19 10:45:08;;;;;;;16.00;7.22;;;;;;;;;;5053643;28;20027;-69
2022/01/19 10:47:41;;;;;;;13.93;7.53;;;;;;;;;;5053011;28;20039;-69
2022/01/19 10:50:08;;;;;;;19.67;7.15;;;;;;;;;;5053645;28;20021;-69
2022/01/19 10:52:42;;;;;;;19.40;9.73;;;;;;;;;;5053753;28;20048;-70
2022/01/19 10:55:12;;;;;;;21.60;10.50;;;;;;;;;;5053053;28;20493;-70
2022/01/19 10:57:43;;;;;;;28.60;14.50;;;;;;;;;;5053471;28;20025;-72
2022/01/19 11:00:10;;;;;;;21.00;9.75;;;;;;;;;;5053883;28;20096;-74
2022/01/19 11:02:37;;;;;;;23.77;11.02;;;;;;;;;;5053150;28;20519;-72
2022/01/19 11:05:03;;;;;;;20.02;9.30;;;;;;;;;;5053482;28;20021;-72
2022/01/19 11:07:30;;;;;;;19.40;7.50;;;;;;;;;;5053242;28;20500;-71
2022/01/19 11:09:57;;;;;;;12.75;6.35;;;;;;;;;;5053400;28;20079;-70
2022/01/19 11:12:28;;;;;;;17.05;7.50;;;;;;;;;;5053346;28;20469;-70
2022/01/19 11:14:54;;;;;;;25.00;11.15;;;;;;;;;;5052663;28;20080;-69
2022/01/19 11:18:25;;;;;;;28.42;12.82;;;;;;;;;;5112133;27;20424;-71
2022/01/19 11:20:52;;;;;;;20.48;10.05;;;;;;;;;;5111279;28;20103;-71
2022/01/19 11:23:24;;;;;;;16.73;7.65;;;;;;;;;;5110890;28;20058;-70
2022/01/19 11:26:42;;;;;;;23.95;12.18;;;;;;;;;;5111471;27;20392;-71
2022/01/19 11:30:17;;;;;;;17.58;8.40;;;;;;;;;;5110879;27;20923;-73
2022/01/19 11:32:45;;;;;;;13.30;6.70;;;;;;;;;;5111227;28;20553;-71
2022/01/19 11:35:31;;;;;;;17.67;9.63;;;;;;;;;;5111221;28;20028;-71
2022/01/19 11:41:25;;;;;;;25.67;10.70;;;;;;;;;;5070902;28;20380;-71
2022/01/19 11:44:30;;;;;;;23.80;12.15;;;;;;;;;;5111036;27;20393;-69
2022/01/19 11:47:16;;;;;;;16.95;7.90;;;;;;;;;;5109843;28;20032;-70
2022/01/19 11:49:53;;;;;;;14.90;6.72;;;;;;;;;;5111064;28;20492;-70
2022/01/19 11:52:26;;;;;;;16.45;7.90;;;;;;;;;;5111525;28;20039;-70
2022/01/19 11:55:09;;;;;;;17.50;8.30;;;;;;;;;;5111225;28;20027;-70
2022/01/19 11:57:35;;;;;;;11.00;6.38;;;;;;;;;;5110715;28;20028;-70
2022/01/19 12:00:06;;;;;;;14.10;6.00;;;;;;;;;;5110809;28;20047;-70
2022/01/19 12:02:55;;;;;;;16.77;5.70;;;;;;;;;;5111459;27;20799;-71
2022/01/19 12:05:26;;;;;;;13.02;4.80;;;;;;;;;;5110889;28;20051;-70
2022/01/19 12:07:59;;;;;;;21.88;9.32;;;;;;;;;;5111351;28;20031;-71
2022/01/19 12:19:13;;;;;;;22.33;10.95;;;;;;;;;;5110876;28;20032;-70
2022/01/19 12:21:41;;;;;;;9.25;4.85;;;;;;;;;;5111553;28;20070;-70
2022/01/19 12:24:21;;;;;;;20.38;10.48;;;;;;;;;;5111133;28;20472;-70
2022/01/19 12:26:52;;;;;;;24.17;10.35;;;;;;;;;;5110772;28;20028;-70
2022/01/19 12:34:02;;;;;;;25.88;11.57;;;;;;;;;;5110969;27;20388;-69
2022/01/19 12:38:07;;;;;;;16.63;9.00;;;;;;;;;;5111501;27;20453;-69
2022/01/19 12:44:54;;;;;;;21.17;11.75;;;;;;;;;;5152605;27;20394;-70
2022/01/19 12:50:23;;;;;;;23.27;10.00;;;;;;;;;;5111299;27;20396;-69
2022/01/19 12:52:54;;;;;;;21.40;11.18;;;;;;;;;;5110849;28;20024;-70
2022/01/19 12:55:20;;;;;;;16.42;8.90;;;;;;;;;;5111711;28;20495;-70
2022/01/19 12:57:47;;;;;;;17.85;10.38;;;;;;;;;;5109845;28;20107;-70
2022/01/19 13:05:10;;;;;;;20.83;10.60;;;;;;;;;;5111690;27;20446;-70
2022/01/19 13:12:42;;;;;;;22.35;11.07;;;;;;;;;;5112097;27;20396;-69
2022/01/19 13:16:02;;;;;;;15.77;9.57;;;;;;;;;;5110813;27;20396;-71
2022/01/19 13:18:34;;;;;;;28.08;11.90;;;;;;;;;;5111255;28;20055;-71
2022/01/19 13:21:03;;;;;;;15.73;8.75;;;;;;;;;;5110816;28;20020;-71
2022/01/19 13:23:30;;;;;;;22.42;13.43;;;;;;;;;;5111248;28;20094;-71
2022/01/19 13:25:58;;;;;;;22.13;9.93;;;;;;;;;;5111112;28;20407;-71
2022/01/19 13:30:12;;;;;;;18.40;10.32;;;;;;;;;;5110778;27;20752;-71
2022/01/19 13:32:39;;;;;;;20.40;11.23;;;;;;;;;;5111223;28;20039;-71
2022/01/19 13:37:00;;;;;;;17.67;9.57;;;;;;;;;;5111019;27;20397;-71
2022/01/19 13:39:28;;;;;;;27.00;15.73;;;;;;;;;;5111252;28;20035;-71
2022/01/19 13:43:41;;;;;;;22.35;11.93;;;;;;;;;;5110979;27;20457;-71
2022/01/19 13:46:15;;;;;;;21.83;11.23;;;;;;;;;;5111569;28;20103;-70
2022/01/19 13:51:44;;;;;;;18.13;8.35;;;;;;;;;;5071561;28;20441;-71
2022/01/19 13:54:10;;;;;;;19.52;9.73;;;;;;;;;;5070730;28;20116;-71
2022/01/19 13:56:38;;;;;;;27.50;15.63;;;;;;;;;;5052380;28;20021;-71
2022/01/19 14:01:20;;;;;;;26.25;16.00;;;;;;;;;;5111852;27;20417;-70
2022/01/19 14:06:07;;;;;;;21.88;10.88;;;;;;;;;;5111401;27;20426;-69
2022/01/19 14:10:07;;;;;;;28.75;13.95;;;;;;;;;;5111384;27;20389;-70
2022/01/19 14:13:38;;;;;;;27.13;14.18;;;;;;;;;;5111742;27;20396;-70
2022/01/19 14:16:23;;;;;;;30.77;14.48;;;;;;;;;;5111116;28;20043;-71
2022/01/19 14:19:10;;;;;;;26.67;13.10;;;;;;;;;;5110989;28;20024;-70
2022/01/19 14:21:55;;;;;;;22.30;12.90;;;;;;;;;;5111531;28;20472;-70
2022/01/19 14:24:21;;;;;;;24.33;13.82;;;;;;;;;;5110605;28;20104;-69
2022/01/19 14:26:54;;;;;;;25.65;15.23;;;;;;;;;;5111107;28;20015;-70
2022/01/19 14:31:01;;;;;;;22.92;14.27;;;;;;;;;;5111558;27;20426;-71
2022/01/19 14:39:26;;;;;;;22.15;11.80;;;;;;;;;;5110994;27;20395;-71
2022/01/19 14:45:38;;;;;;;21.85;12.40;;;;;;;;;;5111481;27;20809;-70
2022/01/19 14:48:15;;;;;;;26.58;15.27;;;;;;;;;;5111330;28;20031;-71
2022/01/19 14:54:34;;;;;;;41.70;23.08;;;;;;;;;;5111443;27;20431;-71
2022/01/19 15:01:14;;;;;;;42.70;25.90;;;;;;;;;;5110980;27;20393;-70
2022/01/19 15:03:40;;;;;;;41.60;27.02;;;;;;;;;;5111270;28;20073;-71
2022/01/19 15:06:06;;;;;;;59.10;36.05;;;;;;;;;;5109828;28;20032;-71
2022/01/19 15:08:32;;;;;;;61.85;38.72;;;;;;;;;;5110724;28;20020;-71
2022/01/19 15:11:24;;;;;;;76.32;47.97;;;;;;;;;;5111725;27;20445;-70
2022/01/19 15:14:49;;;;;;;62.88;39.60;;;;;;;;;;5111128;27;20434;-70
2022/01/19 15:17:16;;;;;;;49.22;30.67;;;;;;;;;;5111162;28;20031;-70
2022/01/19 15:19:43;;;;;;;36.47;21.48;;;;;;;;;;5111365;28;20019;-70
2022/01/19 15:22:09;;;;;;;41.00;25.55;;;;;;;;;;5110887;28;20082;-70
2022/01/19 15:24:38;;;;;;;42.53;24.08;;;;;;;;;;5109509;28;20031;-70
2022/01/19 15:27:05;;;;;;;34.05;20.20;;;;;;;;;;5111034;28;20027;-70
2022/01/19 15:29:32;;;;;;;29.58;16.40;;;;;;;;;;5110629;28;20468;-70
2022/01/19 15:31:58;;;;;;;37.45;19.58;;;;;;;;;;5111367;28;20053;-70
2022/01/19 15:34:24;;;;;;;55.22;34.38;;;;;;;;;;5109503;28;20032;-70
2022/01/19 15:36:51;;;;;;;138.93;74.85;;;;;;;;;;5110384;28;20043;-69
2022/01/19 15:39:17;;;;;;;62.03;36.50;;;;;;;;;;5110774;28;20028;-69
2022/01/19 15:41:43;;;;;;;50.47;27.65;;;;;;;;;;5110439;28;20445;-70
2022/01/19 15:44:10;;;;;;;77.03;48.42;;;;;;;;;;5110975;28;20047;-70
2022/01/19 15:46:37;;;;;;;93.57;53.83;;;;;;;;;;5110991;28;20024;-69
2022/01/19 15:49:03;;;;;;;120.25;65.72;;;;;;;;;;5110145;28;20434;-70
2022/01/19 15:51:30;;;;;;;112.55;61.95;;;;;;;;;;5109342;28;20031;-70
2022/01/19 15:53:56;;;;;;;93.60;47.88;;;;;;;;;;5110465;28;20039;-70
2022/01/19 15:56:23;;;;;;;53.33;29.27;;;;;;;;;;5110074;28;20048;-70
2022/01/19 15:58:50;;;;;;;58.20;33.08;;;;;;;;;;5110930;28;20024;-70
2022/01/19 16:01:16;;;;;;;110.18;52.97;;;;;;;;;;5109013;28;20024;-69
2022/01/19 16:03:44;;;;;;;139.07;67.93;;;;;;;;;;5108683;28;20480;-69
2022/01/19 16:06:11;;;;;;;90.60;46.65;;;;;;;;;;5110467;28;20059;-69
2022/01/19 16:08:40;;;;;;;60.70;30.75;;;;;;;;;;5110282;28;20027;-69
2022/01/19 16:11:06;;;;;;;56.78;31.60;;;;;;;;;;5108498;28;20035;-69
2022/01/19 16:13:32;;;;;;;75.68;41.58;;;;;;;;;;5109878;28;20047;-69
2022/01/19 16:15:58;;;;;;;87.05;48.78;;;;;;;;;;5110170;28;20027;-69
2022/01/19 16:18:25;;;;;;;102.85;58.63;;;;;;;;;;5109746;28;20028;-69
2022/01/19 16:20:51;;;;;;;130.80;72.75;;;;;;;;;;5110026;28;20472;-69
2022/01/19 16:26:13;;;;;;;125.53;75.20;;;;;;;;;;5096849;28;20042;-69
2022/01/19 16:28:41;;;;;;;123.40;69.28;;;;;;;;;;5096557;28;20024;-69
2022/01/19 16:31:07;;;;;;;122.18;64.07;;;;;;;;;;5095916;28;20140;-69
2022/01/19 16:33:34;;;;;;;104.60;61.47;;;;;;;;;;5094872;28;20064;-69
2022/01/19 16:36:06;;;;;;;129.15;68.20;;;;;;;;;;5094901;28;20114;-69
2022/01/19 16:38:33;;;;;;;117.13;66.43;;;;;;;;;;5095962;28;20024;-69
2022/01/19 16:41:01;;;;;;;112.15;61.28;;;;;;;;;;5096393;28;20028;-69
2022/01/19 16:43:28;;;;;;;126.10;61.05;;;;;;;;;;5096146;28;20020;-69
2022/01/19 16:45:54;;;;;;;91.38;51.72;;;;;;;;;;5095613;28;20035;-69
2022/01/19 16:48:21;;;;;;;123.32;67.57;;;;;;;;;;5094718;28;20024;-69
2022/01/19 16:50:49;;;;;;;165.23;88.57;;;;;;;;;;5096180;28;20016;-70
2022/01/19 16:53:16;;;;;;;137.65;74.18;;;;;;;;;;5094151;28;20024;-70
2022/01/19 16:55:43;;;;;;;134.93;73.38;;;;;;;;;;5096356;28;20034;-70
2022/01/19 16:58:13;;;;;;;128.93;70.35;;;;;;;;;;5096001;28;20031;-69
2022/01/19 17:00:40;;;;;;;120.00;64.10;;;;;;;;;;5095459;28;20027;-69
2022/01/19 17:03:06;;;;;;;114.47;58.38;;;;;;;;;;5095660;28;20414;-69
2022/01/19 17:05:32;;;;;;;116.35;58.65;;;;;;;;;;5095851;28;20028;-70
2022/01/19 17:07:58;;;;;;;124.45;66.50;;;;;;;;;;5095243;28;20503;-69
2022/01/19 17:10:29;;;;;;;113.43;63.47;;;;;;;;;;5095674;28;20039;-69
2022/01/19 17:12:59;;;;;;;110.00;65.38;;;;;;;;;;5095268;28;20040;-69
2022/01/19 17:15:40;;;;;;;106.57;61.65;;;;;;;;;;5094259;28;20031;-69